Terminal Aerodrome Forecast
Issued by NWS Austin/San Antonio, TX

Home | Current Version | Previous Version | Text Only | Print | Product List | Glossary On
Versions: 1 2 3 4 5 6 7 8 9 10 11 12 13 14 15 16 17 18 19
000
FTUS44 KEWX 021141
TAFAUS
TAF
KAUS 021141Z 0212/0318 16004KT P6SM SCT010
      TEMPO 0212/0216 BKN010
     FM021600 14007KT P6SM SCT040
     FM022100 13010KT P6SM VCSH SCT060 SCT250
     FM030200 15007KT P6SM FEW250
     FM031000 16006KT P6SM BKN015=

USA.gov is the U.S. government's official web portal to all federal, state and local government web resources and services.